sensor_id;sensor_type;location;lat;lon;timestamp;pressure;altitude;pressure_sealevel;temperature;humidity
7834;BME280;3962;42.696;23.354;2023-02-26T00:00:05;94018.88;;;14.88;46.36
7834;BME280;3962;42.696;23.354;2023-02-26T00:02:34;94010.00;;;14.81;46.08
7834;BME280;3962;42.696;23.354;2023-02-26T00:05:01;94018.69;;;14.96;45.08
7834;BME280;3962;42.696;23.354;2023-02-26T00:07:28;94015.81;;;14.98;45.64
7834;BME280;3962;42.696;23.354;2023-02-26T00:09:56;94018.91;;;14.95;45.79
7834;BME280;3962;42.696;23.354;2023-02-26T00:12:23;94025.50;;;14.92;46.28
7834;BME280;3962;42.696;23.354;2023-02-26T00:14:51;94012.91;;;14.93;45.93
7834;BME280;3962;42.696;23.354;2023-02-26T00:17:41;94006.34;;;14.95;45.85
7834;BME280;3962;42.696;23.354;2023-02-26T00:20:11;94004.69;;;14.94;45.90
7834;BME280;3962;42.696;23.354;2023-02-26T00:22:38;94002.81;;;14.88;45.80
7834;BME280;3962;42.696;23.354;2023-02-26T00:25:08;93980.78;;;14.93;45.86
7834;BME280;3962;42.696;23.354;2023-02-26T00:27:35;93994.59;;;14.90;45.79
7834;BME280;3962;42.696;23.354;2023-02-26T00:30:03;94011.69;;;14.89;46.09
7834;BME280;3962;42.696;23.354;2023-02-26T00:32:31;94004.47;;;14.83;46.26
7834;BME280;3962;42.696;23.354;2023-02-26T00:34:59;94006.09;;;14.84;46.02
7834;BME280;3962;42.696;23.354;2023-02-26T00:37:34;94009.41;;;14.86;46.10
7834;BME280;3962;42.696;23.354;2023-02-26T00:40:14;93998.91;;;14.91;46.21
7834;BME280;3962;42.696;23.354;2023-02-26T00:42:45;93990.28;;;14.89;46.37
7834;BME280;3962;42.696;23.354;2023-02-26T00:45:13;93994.16;;;14.86;46.39
7834;BME280;3962;42.696;23.354;2023-02-26T00:47:46;93984.69;;;14.84;46.30
7834;BME280;3962;42.696;23.354;2023-02-26T00:50:17;93975.41;;;14.73;46.61
7834;BME280;3962;42.696;23.354;2023-02-26T00:53:00;93974.78;;;14.72;46.58
7834;BME280;3962;42.696;23.354;2023-02-26T00:55:30;93967.78;;;14.64;46.75
7834;BME280;3962;42.696;23.354;2023-02-26T00:57:56;93964.47;;;14.56;46.80
7834;BME280;3962;42.696;23.354;2023-02-26T01:00:24;93989.16;;;14.51;47.14
7834;BME280;3962;42.696;23.354;2023-02-26T01:02:51;93991.03;;;14.57;46.93
7834;BME280;3962;42.696;23.354;2023-02-26T01:05:19;93977.22;;;14.60;47.00
7834;BME280;3962;42.696;23.354;2023-02-26T01:07:51;93970.47;;;14.71;46.80
7834;BME280;3962;42.696;23.354;2023-02-26T01:10:21;93976.19;;;14.55;47.25
7834;BME280;3962;42.696;23.354;2023-02-26T01:12:49;93960.94;;;14.55;46.19
7834;BME280;3962;42.696;23.354;2023-02-26T01:15:17;93978.06;;;14.61;45.79
7834;BME280;3962;42.696;23.354;2023-02-26T01:17:48;93949.00;;;14.45;46.70
7834;BME280;3962;42.696;23.354;2023-02-26T01:20:20;93947.19;;;14.65;44.92
7834;BME280;3962;42.696;23.354;2023-02-26T01:22:51;93953.13;;;14.67;45.59
7834;BME280;3962;42.696;23.354;2023-02-26T01:25:23;93946.16;;;14.66;45.85
7834;BME280;3962;42.696;23.354;2023-02-26T01:27:52;93949.25;;;14.56;45.94
7834;BME280;3962;42.696;23.354;2023-02-26T01:30:22;93926.16;;;14.49;46.31
7834;BME280;3962;42.696;23.354;2023-02-26T01:32:53;93920.59;;;14.57;45.66
7834;BME280;3962;42.696;23.354;2023-02-26T01:35:36;93913.59;;;14.56;45.84
7834;BME280;3962;42.696;23.354;2023-02-26T01:38:13;93920.00;;;14.55;46.08
7834;BME280;3962;42.696;23.354;2023-02-26T01:41:15;93897.31;;;14.51;45.86
7834;BME280;3962;42.696;23.354;2023-02-26T01:43:52;93911.94;;;14.42;45.67
7834;BME280;3962;42.696;23.354;2023-02-26T01:46:28;93913.78;;;14.41;45.87
7834;BME280;3962;42.696;23.354;2023-02-26T01:48:59;93914.41;;;14.50;45.19
7834;BME280;3962;42.696;23.354;2023-02-26T01:51:54;93901.69;;;14.71;43.66
7834;BME280;3962;42.696;23.354;2023-02-26T01:54:23;93909.91;;;14.70;44.78
7834;BME280;3962;42.696;23.354;2023-02-26T01:56:53;93905.59;;;14.75;44.39
7834;BME280;3962;42.696;23.354;2023-02-26T01:59:23;93922.88;;;14.66;44.68
7834;BME280;3962;42.696;23.354;2023-02-26T02:01:51;93918.34;;;14.60;44.65
7834;BME280;3962;42.696;23.354;2023-02-26T02:04:19;93886.84;;;14.62;44.53
7834;BME280;3962;42.696;23.354;2023-02-26T02:06:48;93882.09;;;14.58;44.76
7834;BME280;3962;42.696;23.354;2023-02-26T02:09:15;93892.00;;;14.57;44.33
7834;BME280;3962;42.696;23.354;2023-02-26T02:12:06;93917.47;;;14.27;45.66
7834;BME280;3962;42.696;23.354;2023-02-26T02:14:42;93889.50;;;14.30;44.74
7834;BME280;3962;42.696;23.354;2023-02-26T02:17:16;93869.13;;;14.42;44.38
7834;BME280;3962;42.696;23.354;2023-02-26T02:20:05;93894.84;;;14.43;44.13
7834;BME280;3962;42.696;23.354;2023-02-26T02:22:50;93913.16;;;14.33;44.57
7834;BME280;3962;42.696;23.354;2023-02-26T02:25:51;93900.63;;;14.53;43.49
7834;BME280;3962;42.696;23.354;2023-02-26T02:28:30;93898.19;;;14.64;43.04
7834;BME280;3962;42.696;23.354;2023-02-26T02:31:05;93888.31;;;14.71;42.25
7834;BME280;3962;42.696;23.354;2023-02-26T02:33:37;93896.75;;;14.81;42.67
7834;BME280;3962;42.696;23.354;2023-02-26T02:36:13;93872.63;;;14.68;42.95
7834;BME280;3962;42.696;23.354;2023-02-26T02:38:46;93883.56;;;14.79;41.96
7834;BME280;3962;42.696;23.354;2023-02-26T02:41:18;93890.16;;;14.90;41.33
7834;BME280;3962;42.696;23.354;2023-02-26T02:43:47;93908.91;;;14.90;42.03
7834;BME280;3962;42.696;23.354;2023-02-26T02:46:20;93893.03;;;14.88;41.99
7834;BME280;3962;42.696;23.354;2023-02-26T02:48:53;93910.53;;;14.78;42.15
7834;BME280;3962;42.696;23.354;2023-02-26T02:51:25;93912.41;;;14.71;42.13
7834;BME280;3962;42.696;23.354;2023-02-26T02:53:59;93914.44;;;14.82;41.99
7834;BME280;3962;42.696;23.354;2023-02-26T02:56:30;93921.66;;;14.81;41.97
7834;BME280;3962;42.696;23.354;2023-02-26T02:59:03;93908.88;;;14.77;42.12
7834;BME280;3962;42.696;23.354;2023-02-26T03:01:34;93911.16;;;14.80;41.81
7834;BME280;3962;42.696;23.354;2023-02-26T03:04:04;93909.72;;;14.97;41.18
7834;BME280;3962;42.696;23.354;2023-02-26T03:06:32;93905.38;;;14.89;41.43
7834;BME280;3962;42.696;23.354;2023-02-26T03:09:00;93920.63;;;14.89;41.45
7834;BME280;3962;42.696;23.354;2023-02-26T03:11:29;93914.03;;;14.66;42.04
7834;BME280;3962;42.696;23.354;2023-02-26T03:13:55;93929.25;;;14.52;42.52
7834;BME280;3962;42.696;23.354;2023-02-26T03:16:31;93915.66;;;14.54;42.12
7834;BME280;3962;42.696;23.354;2023-02-26T03:19:10;93914.63;;;14.48;42.72
7834;BME280;3962;42.696;23.354;2023-02-26T03:21:46;93910.47;;;14.39;42.76
7834;BME280;3962;42.696;23.354;2023-02-26T03:24:18;93898.53;;;14.35;42.30
7834;BME280;3962;42.696;23.354;2023-02-26T03:26:53;93896.53;;;14.70;41.09
7834;BME280;3962;42.696;23.354;2023-02-26T03:29:27;93897.13;;;14.78;41.28
7834;BME280;3962;42.696;23.354;2023-02-26T03:32:01;93904.97;;;14.79;41.13
7834;BME280;3962;42.696;23.354;2023-02-26T03:34:38;93896.34;;;14.77;41.46
7834;BME280;3962;42.696;23.354;2023-02-26T03:37:14;93898.16;;;14.77;41.56
7834;BME280;3962;42.696;23.354;2023-02-26T03:39:45;93928.44;;;14.65;41.98
7834;BME280;3962;42.696;23.354;2023-02-26T03:42:17;93921.03;;;14.60;41.92
7834;BME280;3962;42.696;23.354;2023-02-26T03:44:51;93918.34;;;14.54;42.70
7834;BME280;3962;42.696;23.354;2023-02-26T03:47:19;93908.88;;;14.51;41.96
7834;BME280;3962;42.696;23.354;2023-02-26T03:49:53;93895.91;;;14.61;41.59
7834;BME280;3962;42.696;23.354;2023-02-26T03:52:23;93890.75;;;14.73;41.46
7834;BME280;3962;42.696;23.354;2023-02-26T03:54:55;93892.63;;;14.72;41.43
7834;BME280;3962;42.696;23.354;2023-02-26T03:57:23;93906.00;;;14.72;41.47
7834;BME280;3962;42.696;23.354;2023-02-26T03:59:50;93892.81;;;14.71;41.44
7834;BME280;3962;42.696;23.354;2023-02-26T04:02:21;93884.78;;;14.71;40.60
7834;BME280;3962;42.696;23.354;2023-02-26T04:04:55;93888.31;;;14.77;40.61
7834;BME280;3962;42.696;23.354;2023-02-26T04:07:22;93890.78;;;14.60;41.81
7834;BME280;3962;42.696;23.354;2023-02-26T04:09:50;93887.88;;;14.68;41.49
7834;BME280;3962;42.696;23.354;2023-02-26T04:12:20;93893.66;;;14.71;41.26
7834;BME280;3962;42.696;23.354;2023-02-26T04:14:47;93888.69;;;14.62;41.63
7834;BME280;3962;42.696;23.354;2023-02-26T04:17:14;93875.75;;;14.65;41.32
7834;BME280;3962;42.696;23.354;2023-02-26T04:19:41;93881.28;;;14.70;41.51
7834;BME280;3962;42.696;23.354;2023-02-26T04:22:10;93881.50;;;14.69;41.51
7834;BME280;3962;42.696;23.354;2023-02-26T04:24:37;93874.06;;;14.51;41.90
7834;BME280;3962;42.696;23.354;2023-02-26T04:27:03;93872.81;;;14.47;41.87
7834;BME280;3962;42.696;23.354;2023-02-26T04:29:30;93873.66;;;14.48;41.77
7834;BME280;3962;42.696;23.354;2023-02-26T04:31:57;93849.97;;;14.51;41.86
7834;BME280;3962;42.696;23.354;2023-02-26T04:34:25;93854.94;;;14.61;41.17
7834;BME280;3962;42.696;23.354;2023-02-26T04:36:52;93855.97;;;14.66;41.00
7834;BME280;3962;42.696;23.354;2023-02-26T04:39:20;93851.44;;;14.73;41.26
7834;BME280;3962;42.696;23.354;2023-02-26T04:41:47;93851.41;;;14.67;41.27
7834;BME280;3962;42.696;23.354;2023-02-26T04:44:14;93856.59;;;14.62;41.63
7834;BME280;3962;42.696;23.354;2023-02-26T04:46:41;93838.47;;;14.57;41.76
7834;BME280;3962;42.696;23.354;2023-02-26T04:49:07;93831.03;;;14.46;42.12
7834;BME280;3962;42.696;23.354;2023-02-26T04:51:34;93841.31;;;14.36;42.67
7834;BME280;3962;42.696;23.354;2023-02-26T04:54:01;93837.63;;;14.37;41.96
7834;BME280;3962;42.696;23.354;2023-02-26T04:56:29;93831.03;;;14.33;42.38
7834;BME280;3962;42.696;23.354;2023-02-26T04:58:56;93834.56;;;14.40;42.24
7834;BME280;3962;42.696;23.354;2023-02-26T05:01:23;93840.50;;;14.36;43.35
7834;BME280;3962;42.696;23.354;2023-02-26T05:03:50;93853.44;;;14.26;43.83
7834;BME280;3962;42.696;23.354;2023-02-26T05:06:17;93837.22;;;14.21;43.62
7834;BME280;3962;42.696;23.354;2023-02-26T05:08:44;93849.13;;;14.18;43.99
7834;BME280;3962;42.696;23.354;2023-02-26T05:11:11;93849.91;;;14.12;44.19
7834;BME280;3962;42.696;23.354;2023-02-26T05:13:39;93847.66;;;14.16;43.96
7834;BME280;3962;42.696;23.354;2023-02-26T05:16:06;93830.00;;;14.21;43.77
7834;BME280;3962;42.696;23.354;2023-02-26T05:18:33;93808.31;;;13.90;45.09
7834;BME280;3962;42.696;23.354;2023-02-26T05:21:00;93840.19;;;13.92;43.98
7834;BME280;3962;42.696;23.354;2023-02-26T05:23:27;93837.75;;;13.97;43.42
7834;BME280;3962;42.696;23.354;2023-02-26T05:25:54;93832.81;;;14.13;43.24
7834;BME280;3962;42.696;23.354;2023-02-26T05:28:21;93833.50;;;14.22;43.89
7834;BME280;3962;42.696;23.354;2023-02-26T05:30:49;93813.06;;;14.08;44.34
7834;BME280;3962;42.696;23.354;2023-02-26T05:33:16;93818.19;;;13.96;44.61
7834;BME280;3962;42.696;23.354;2023-02-26T05:35:44;93856.66;;;13.89;44.02
7834;BME280;3962;42.696;23.354;2023-02-26T05:38:11;93838.78;;;14.02;43.31
7834;BME280;3962;42.696;23.354;2023-02-26T05:40:38;93803.66;;;14.38;41.31
7834;BME280;3962;42.696;23.354;2023-02-26T05:43:04;93828.75;;;14.88;40.13
7834;BME280;3962;42.696;23.354;2023-02-26T05:45:31;93814.97;;;14.78;41.22
7834;BME280;3962;42.696;23.354;2023-02-26T05:48:00;93830.00;;;14.60;41.44
7834;BME280;3962;42.696;23.354;2023-02-26T05:50:27;93819.94;;;14.49;41.78
7834;BME280;3962;42.696;23.354;2023-02-26T05:52:55;93838.44;;;14.44;41.80
7834;BME280;3962;42.696;23.354;2023-02-26T05:55:21;93838.84;;;14.28;42.71
7834;BME280;3962;42.696;23.354;2023-02-26T05:57:48;93872.41;;;14.31;42.68
7834;BME280;3962;42.696;23.354;2023-02-26T06:00:16;93851.81;;;14.31;43.01
7834;BME280;3962;42.696;23.354;2023-02-26T06:02:43;93846.47;;;14.38;42.40
7834;BME280;3962;42.696;23.354;2023-02-26T06:05:12;93827.94;;;14.36;42.23
7834;BME280;3962;42.696;23.354;2023-02-26T06:07:38;93846.47;;;14.38;41.34
7834;BME280;3962;42.696;23.354;2023-02-26T06:10:06;93847.94;;;14.47;42.23
7834;BME280;3962;42.696;23.354;2023-02-26T06:12:34;93851.63;;;14.46;42.17
7834;BME280;3962;42.696;23.354;2023-02-26T06:15:01;93853.41;;;15.23;52.19
7834;BME280;3962;42.696;23.354;2023-02-26T06:17:28;93866.75;;;15.62;49.23
7834;BME280;3962;42.696;23.354;2023-02-26T06:19:55;93868.44;;;15.50;47.50
7834;BME280;3962;42.696;23.354;2023-02-26T06:22:23;93865.91;;;15.61;47.82
7834;BME280;3962;42.696;23.354;2023-02-26T06:24:50;93859.97;;;15.97;47.19
7834;BME280;3962;42.696;23.354;2023-02-26T06:27:17;93872.16;;;16.06;44.50
7834;BME280;3962;42.696;23.354;2023-02-26T06:29:44;93869.81;;;15.65;38.81
7834;BME280;3962;42.696;23.354;2023-02-26T06:32:10;93858.31;;;15.58;38.74
7834;BME280;3962;42.696;23.354;2023-02-26T06:34:37;93846.78;;;15.51;38.90
7834;BME280;3962;42.696;23.354;2023-02-26T06:37:04;93853.63;;;15.28;39.04
7834;BME280;3962;42.696;23.354;2023-02-26T06:39:33;93867.25;;;15.39;38.84
7834;BME280;3962;42.696;23.354;2023-02-26T06:42:00;93864.53;;;15.46;38.96
7834;BME280;3962;42.696;23.354;2023-02-26T06:44:27;93856.63;;;15.64;37.68
7834;BME280;3962;42.696;23.354;2023-02-26T06:46:53;93863.16;;;15.81;37.50
7834;BME280;3962;42.696;23.354;2023-02-26T06:49:21;93853.47;;;15.86;37.93
7834;BME280;3962;42.696;23.354;2023-02-26T06:51:47;93852.97;;;15.96;36.96
7834;BME280;3962;42.696;23.354;2023-02-26T06:54:14;93837.50;;;15.98;36.93
7834;BME280;3962;42.696;23.354;2023-02-26T06:56:42;93870.06;;;16.08;36.89
7834;BME280;3962;42.696;23.354;2023-02-26T06:59:09;93866.34;;;16.09;36.63
7834;BME280;3962;42.696;23.354;2023-02-26T07:01:36;93838.81;;;16.20;36.12
7834;BME280;3962;42.696;23.354;2023-02-26T07:04:04;93862.28;;;16.31;36.06
7834;BME280;3962;42.696;23.354;2023-02-26T07:06:31;93864.97;;;16.37;36.08
7834;BME280;3962;42.696;23.354;2023-02-26T07:08:58;93843.44;;;16.44;36.07
7834;BME280;3962;42.696;23.354;2023-02-26T07:11:25;93849.09;;;16.60;35.49
7834;BME280;3962;42.696;23.354;2023-02-26T07:13:53;93848.19;;;16.73;35.26
7834;BME280;3962;42.696;23.354;2023-02-26T07:16:20;93845.88;;;16.76;35.39
7834;BME280;3962;42.696;23.354;2023-02-26T07:18:46;93846.59;;;16.90;35.04
7834;BME280;3962;42.696;23.354;2023-02-26T07:21:13;93842.44;;;16.94;34.79
7834;BME280;3962;42.696;23.354;2023-02-26T07:23:40;93857.91;;;16.98;34.86
7834;BME280;3962;42.696;23.354;2023-02-26T07:26:07;93864.13;;;16.92;35.01
7834;BME280;3962;42.696;23.354;2023-02-26T07:28:34;93857.91;;;16.98;34.80
7834;BME280;3962;42.696;23.354;2023-02-26T07:31:02;93861.53;;;16.86;34.79
7834;BME280;3962;42.696;23.354;2023-02-26T07:33:29;93834.38;;;16.94;34.43
7834;BME280;3962;42.696;23.354;2023-02-26T07:35:56;93848.47;;;16.89;34.64
7834;BME280;3962;42.696;23.354;2023-02-26T07:38:23;93843.03;;;16.96;34.83
7834;BME280;3962;42.696;23.354;2023-02-26T07:40:53;93812.13;;;16.87;34.30
7834;BME280;3962;42.696;23.354;2023-02-26T07:43:20;93815.94;;;16.97;34.64
7834;BME280;3962;42.696;23.354;2023-02-26T07:45:48;93828.06;;;17.06;34.64
7834;BME280;3962;42.696;23.354;2023-02-26T07:48:17;93837.19;;;17.23;34.05
7834;BME280;3962;42.696;23.354;2023-02-26T07:50:44;93829.78;;;17.43;33.62
7834;BME280;3962;42.696;23.354;2023-02-26T07:53:10;93826.75;;;17.33;33.81
7834;BME280;3962;42.696;23.354;2023-02-26T07:55:37;93798.66;;;17.29;33.66
7834;BME280;3962;42.696;23.354;2023-02-26T07:58:04;93822.56;;;17.19;33.95
7834;BME280;3962;42.696;23.354;2023-02-26T08:00:31;93818.22;;;17.18;34.10
7834;BME280;3962;42.696;23.354;2023-02-26T08:02:58;93822.97;;;17.41;33.36
7834;BME280;3962;42.696;23.354;2023-02-26T08:05:26;93832.94;;;17.58;33.08
7834;BME280;3962;42.696;23.354;2023-02-26T08:07:53;93832.69;;;17.60;33.15
7834;BME280;3962;42.696;23.354;2023-02-26T08:10:20;93843.97;;;17.68;32.92
7834;BME280;3962;42.696;23.354;2023-02-26T08:12:47;93850.53;;;17.72;32.91
7834;BME280;3962;42.696;23.354;2023-02-26T08:15:14;93840.09;;;17.82;32.45
7834;BME280;3962;42.696;23.354;2023-02-26T08:17:41;93826.25;;;17.97;32.22
7834;BME280;3962;42.696;23.354;2023-02-26T08:20:09;93834.41;;;17.72;32.55
7834;BME280;3962;42.696;23.354;2023-02-26T08:22:37;93839.84;;;18.02;32.29
7834;BME280;3962;42.696;23.354;2023-02-26T08:25:05;93858.47;;;18.51;34.56
7834;BME280;3962;42.696;23.354;2023-02-26T08:27:33;93853.34;;;18.72;31.47
7834;BME280;3962;42.696;23.354;2023-02-26T08:30:00;93845.72;;;18.58;31.51
7834;BME280;3962;42.696;23.354;2023-02-26T08:32:27;93852.19;;;18.79;31.09
7834;BME280;3962;42.696;23.354;2023-02-26T08:34:54;93868.31;;;18.68;31.43
7834;BME280;3962;42.696;23.354;2023-02-26T08:37:20;93866.50;;;18.80;31.74
7834;BME280;3962;42.696;23.354;2023-02-26T08:39:50;93895.31;;;18.79;31.20
7834;BME280;3962;42.696;23.354;2023-02-26T08:42:16;93911.53;;;19.02;31.49
7834;BME280;3962;42.696;23.354;2023-02-26T08:44:44;93905.44;;;19.07;30.72
7834;BME280;3962;42.696;23.354;2023-02-26T08:47:11;93896.28;;;18.85;31.39
7834;BME280;3962;42.696;23.354;2023-02-26T08:49:38;93867.44;;;18.45;31.68
7834;BME280;3962;42.696;23.354;2023-02-26T08:52:05;93859.97;;;17.99;32.28
7834;BME280;3962;42.696;23.354;2023-02-26T08:54:32;93860.91;;;18.05;32.43
7834;BME280;3962;42.696;23.354;2023-02-26T08:57:01;93880.06;;;17.97;32.57
7834;BME280;3962;42.696;23.354;2023-02-26T08:59:27;93883.78;;;18.14;32.09
7834;BME280;3962;42.696;23.354;2023-02-26T09:01:54;93903.47;;;18.32;31.64
7834;BME280;3962;42.696;23.354;2023-02-26T09:04:21;93891.84;;;18.50;31.60
7834;BME280;3962;42.696;23.354;2023-02-26T09:06:48;93888.03;;;18.69;30.88
7834;BME280;3962;42.696;23.354;2023-02-26T09:09:15;93865.75;;;18.62;31.25
7834;BME280;3962;42.696;23.354;2023-02-26T09:11:43;93877.16;;;18.46;31.53
7834;BME280;3962;42.696;23.354;2023-02-26T09:14:12;93880.00;;;18.51;31.65
7834;BME280;3962;42.696;23.354;2023-02-26T09:16:39;93885.56;;;18.38;32.31
7834;BME280;3962;42.696;23.354;2023-02-26T09:19:06;93882.81;;;18.56;31.92
7834;BME280;3962;42.696;23.354;2023-02-26T09:21:33;93865.63;;;18.57;31.60
7834;BME280;3962;42.696;23.354;2023-02-26T09:24:02;93864.88;;;18.79;31.39
7834;BME280;3962;42.696;23.354;2023-02-26T09:26:30;93864.72;;;19.26;31.24
7834;BME280;3962;42.696;23.354;2023-02-26T09:28:57;93862.59;;;19.74;30.69
7834;BME280;3962;42.696;23.354;2023-02-26T09:31:25;93846.06;;;19.71;30.28
7834;BME280;3962;42.696;23.354;2023-02-26T09:33:52;93847.94;;;19.70;30.59
7834;BME280;3962;42.696;23.354;2023-02-26T09:36:19;93851.03;;;20.02;29.29
7834;BME280;3962;42.696;23.354;2023-02-26T09:38:46;93870.75;;;20.25;28.81
7834;BME280;3962;42.696;23.354;2023-02-26T09:41:17;93872.84;;;20.35;28.65
7834;BME280;3962;42.696;23.354;2023-02-26T09:43:54;93889.00;;;20.46;29.02
7834;BME280;3962;42.696;23.354;2023-02-26T09:46:38;93872.22;;;19.70;29.67
7834;BME280;3962;42.696;23.354;2023-02-26T09:49:16;93862.72;;;19.33;30.33
7834;BME280;3962;42.696;23.354;2023-02-26T09:51:45;93863.22;;;19.30;30.58
7834;BME280;3962;42.696;23.354;2023-02-26T09:54:17;93861.19;;;19.83;30.08
7834;BME280;3962;42.696;23.354;2023-02-26T09:56:46;93857.53;;;19.78;30.22
7834;BME280;3962;42.696;23.354;2023-02-26T09:59:17;93861.22;;;19.37;30.45
7834;BME280;3962;42.696;23.354;2023-02-26T10:01:53;93856.97;;;19.41;31.03
7834;BME280;3962;42.696;23.354;2023-02-26T10:04:26;93841.69;;;19.81;30.41
7834;BME280;3962;42.696;23.354;2023-02-26T10:07:09;93870.31;;;20.05;29.44
7834;BME280;3962;42.696;23.354;2023-02-26T10:09:55;93870.41;;;19.99;29.62
7834;BME280;3962;42.696;23.354;2023-02-26T10:12:25;93843.16;;;20.23;29.30
7834;BME280;3962;42.696;23.354;2023-02-26T10:14:56;93822.41;;;20.40;28.69
7834;BME280;3962;42.696;23.354;2023-02-26T10:17:31;93821.50;;;20.35;28.87
7834;BME280;3962;42.696;23.354;2023-02-26T10:20:03;93842.84;;;20.36;29.16
7834;BME280;3962;42.696;23.354;2023-02-26T10:22:36;93875.97;;;20.71;28.13
7834;BME280;3962;42.696;23.354;2023-02-26T10:25:06;93866.28;;;20.75;28.17
7834;BME280;3962;42.696;23.354;2023-02-26T10:27:46;93887.03;;;20.98;28.04
7834;BME280;3962;42.696;23.354;2023-02-26T10:30:21;93864.72;;;20.91;27.58
7834;BME280;3962;42.696;23.354;2023-02-26T10:32:59;93852.84;;;20.64;28.10
7834;BME280;3962;42.696;23.354;2023-02-26T10:35:31;93847.53;;;20.97;28.42
7834;BME280;3962;42.696;23.354;2023-02-26T10:38:09;93861.38;;;21.00;28.12
7834;BME280;3962;42.696;23.354;2023-02-26T10:40:41;93854.59;;;21.31;27.99
7834;BME280;3962;42.696;23.354;2023-02-26T10:43:17;93849.00;;;21.37;27.72
7834;BME280;3962;42.696;23.354;2023-02-26T10:45:54;93824.03;;;21.14;27.89
7834;BME280;3962;42.696;23.354;2023-02-26T10:48:36;93826.69;;;20.81;28.37
7834;BME280;3962;42.696;23.354;2023-02-26T10:51:10;93825.72;;;20.87;28.45
7834;BME280;3962;42.696;23.354;2023-02-26T10:53:38;93828.97;;;20.44;29.07
7834;BME280;3962;42.696;23.354;2023-02-26T10:56:11;93830.06;;;20.32;29.08
7834;BME280;3962;42.696;23.354;2023-02-26T10:58:40;93812.81;;;20.33;28.59
7834;BME280;3962;42.696;23.354;2023-02-26T11:01:13;93812.41;;;20.41;28.74
7834;BME280;3962;42.696;23.354;2023-02-26T11:03:45;93805.66;;;19.87;29.36
7834;BME280;3962;42.696;23.354;2023-02-26T11:06:17;93833.25;;;19.78;29.71
7834;BME280;3962;42.696;23.354;2023-02-26T11:08:47;93815.50;;;19.93;29.20
7834;BME280;3962;42.696;23.354;2023-02-26T11:11:40;93813.94;;;19.97;29.04
7834;BME280;3962;42.696;23.354;2023-02-26T11:14:08;93803.78;;;19.88;29.26
7834;BME280;3962;42.696;23.354;2023-02-26T11:16:35;93793.38;;;19.80;29.64
7834;BME280;3962;42.696;23.354;2023-02-26T11:19:08;93808.91;;;19.50;29.78
7834;BME280;3962;42.696;23.354;2023-02-26T11:21:40;93801.50;;;19.57;30.12
7834;BME280;3962;42.696;23.354;2023-02-26T11:24:12;93818.16;;;19.54;30.09
7834;BME280;3962;42.696;23.354;2023-02-26T11:26:43;93817.44;;;19.47;30.57
7834;BME280;3962;42.696;23.354;2023-02-26T11:29:14;93810.28;;;19.06;30.85
7834;BME280;3962;42.696;23.354;2023-02-26T11:31:41;93832.44;;;18.97;31.02
7834;BME280;3962;42.696;23.354;2023-02-26T11:34:11;93832.91;;;18.94;31.41
7834;BME280;3962;42.696;23.354;2023-02-26T11:36:39;93820.84;;;18.96;31.16
7834;BME280;3962;42.696;23.354;2023-02-26T11:39:15;93816.03;;;18.87;31.56
7834;BME280;3962;42.696;23.354;2023-02-26T11:41:44;93828.34;;;18.54;32.32
7834;BME280;3962;42.696;23.354;2023-02-26T11:44:14;93838.03;;;18.43;32.61
7834;BME280;3962;42.696;23.354;2023-02-26T11:46:44;93839.34;;;18.52;32.23
7834;BME280;3962;42.696;23.354;2023-02-26T11:49:16;93838.31;;;18.53;32.38
7834;BME280;3962;42.696;23.354;2023-02-26T11:51:45;93853.81;;;18.58;32.85
7834;BME280;3962;42.696;23.354;2023-02-26T11:54:21;93855.28;;;18.54;32.92
7834;BME280;3962;42.696;23.354;2023-02-26T11:56:49;93863.00;;;18.50;33.26
7834;BME280;3962;42.696;23.354;2023-02-26T11:59:17;93862.31;;;18.55;32.88
7834;BME280;3962;42.696;23.354;2023-02-26T12:01:46;93842.63;;;18.25;32.91
7834;BME280;3962;42.696;23.354;2023-02-26T12:04:17;93858.47;;;18.33;32.97
7834;BME280;3962;42.696;23.354;2023-02-26T12:06:45;93880.91;;;18.45;32.62
7834;BME280;3962;42.696;23.354;2023-02-26T12:09:15;93891.94;;;18.55;32.66
7834;BME280;3962;42.696;23.354;2023-02-26T12:11:53;93871.59;;;18.59;32.72
7834;BME280;3962;42.696;23.354;2023-02-26T12:14:40;93869.34;;;18.56;33.75
7834;BME280;3962;42.696;23.354;2023-02-26T12:17:30;93890.38;;;18.77;32.99
7834;BME280;3962;42.696;23.354;2023-02-26T12:20:16;93893.34;;;18.86;32.37
7834;BME280;3962;42.696;23.354;2023-02-26T12:22:50;93884.22;;;18.99;32.32
7834;BME280;3962;42.696;23.354;2023-02-26T12:25:38;93881.56;;;19.10;32.07
7834;BME280;3962;42.696;23.354;2023-02-26T12:28:23;93893.53;;;19.14;32.48
7834;BME280;3962;42.696;23.354;2023-02-26T12:31:07;93897.03;;;19.15;32.20
7834;BME280;3962;42.696;23.354;2023-02-26T12:33:47;93917.56;;;19.04;33.73
7834;BME280;3962;42.696;23.354;2023-02-26T12:36:26;93926.28;;;18.88;33.93
7834;BME280;3962;42.696;23.354;2023-02-26T12:39:00;93905.06;;;18.81;33.69
7834;BME280;3962;42.696;23.354;2023-02-26T12:41:46;93902.47;;;18.45;33.64
7834;BME280;3962;42.696;23.354;2023-02-26T12:44:26;93911.81;;;18.72;33.46
7834;BME280;3962;42.696;23.354;2023-02-26T12:47:14;93932.66;;;19.05;33.60
7834;BME280;3962;42.696;23.354;2023-02-26T12:53:11;93915.56;;;18.71;34.48
7834;BME280;3962;42.696;23.354;2023-02-26T12:55:51;93920.25;;;18.75;35.59
7834;BME280;3962;42.696;23.354;2023-02-26T12:58:34;93912.13;;;18.64;35.56
7834;BME280;3962;42.696;23.354;2023-02-26T13:01:11;93904.97;;;18.58;35.56
7834;BME280;3962;42.696;23.354;2023-02-26T13:06:58;93877.13;;;18.16;35.67
7834;BME280;3962;42.696;23.354;2023-02-26T13:09:33;93895.69;;;18.06;36.18
7834;BME280;3962;42.696;23.354;2023-02-26T13:12:16;93912.84;;;18.05;36.27
7834;BME280;3962;42.696;23.354;2023-02-26T13:14:51;93908.81;;;17.96;36.41
7834;BME280;3962;42.696;23.354;2023-02-26T13:17:25;93884.69;;;17.90;37.02
7834;BME280;3962;42.696;23.354;2023-02-26T13:19:57;93905.31;;;17.78;37.59
7834;BME280;3962;42.696;23.354;2023-02-26T13:22:29;93921.31;;;17.73;38.09
7834;BME280;3962;42.696;23.354;2023-02-26T13:25:00;93888.16;;;17.79;38.51
7834;BME280;3962;42.696;23.354;2023-02-26T13:27:32;93910.09;;;17.76;38.04
7834;BME280;3962;42.696;23.354;2023-02-26T13:30:17;93911.41;;;17.91;37.30
7834;BME280;3962;42.696;23.354;2023-02-26T13:32:46;93916.25;;;18.19;37.51
7834;BME280;3962;42.696;23.354;2023-02-26T13:35:21;93909.00;;;18.67;37.25